Hill Air Force Base
KHIF : now visible

Airfield :











YOU CAN JOIN US ON...

 
LOGIN :

Register | Disclaimer

   EN    FR    IT 

 









Legend :    VFR   Marginal VFR   IFR   Intensive IFR   Very Intensive IFR
Visi :
Ceiling :
>= 8 km
>= 3000ft
5 to 8 km
1000 to 3000 ft
1500m to 5 km
500 to 1000 ft
800 to 1500m
200 to 500 ft
< 800m
< 200 ft
Symbols :   Thunderstorms  Fog  Heavy snow  Heavy precipitations  Wind > 20 kt






- Airport Elevation : 4789 ft


KHIF - Hill Air Force Base

CURRENT METAR :
  • 081458Z AUTO 16009KT 10SM FEW130 09/M05 A2990 RMK AO2 SLP100 T00881051 55001

EXPIRED METARs :
  • 081358Z 12009KT 10SM BKN120 07/M05 A2990 RMK AO2A SLP103 T00691051
  • 081258Z AUTO 12007KT 10SM OVC110 08/M04 A2989 RMK AO2 SLP096 T00761045

TAF TAF KHIF
Valid from the 08 at 14:00 until the 09 at 20:00 UTC


081400Z 0814/0920 12012G18KT 9999 BKN150 QNH2988INS
BECMG 0816/0817 19015G25KT 9999 SCT180 510009 QNH2977INS
TEMPO 0817/0822 20025G35KT 530009
BECMG 0821/0822 25012G18KT 9999 BKN100 QNH2973INS
BECMG 0905/0906 30009KT 8000 -RASN SCT020 OVC030 620309 QNH2977INS
TEMPO 0906/0910 6000 -SN BKN020 620259
BECMG 0909/0910 VRB06KT 9999 NSW BKN060 620603 QNH2990INS TX18/0820Z TN00/0909Z
KZLC FIR / North America



MET'MAP, your aeronautical weather chart ! - Copyright ORBIFLY December 2007 - Disclaimer

ORBIFLY MET'MAP TEAM :

Programming & Development : Alexandra Zaïnal
Concept & original design : Baudouin d'Aumeries
Assistance for programming : Marc-Olivier Méhu
Technical & hardware support : Manuel Goepfert

Contact : metmap@orbifly.com




SOURCES & CREDITS :

   NOAA       Earth
Advisory